Aviation Digital Data Service (ADDS)

Output produced by METARs form (0238 UTC 22 July 2017)
found at http://www.aviationweather.gov/adds/metars/
 
TAF FWCL 211500Z 2118/2224 07008KT CAVOK